createdAt,value
2019-03-06T00:00:36.061Z,68.05
2019-03-06T00:01:36.102Z,67.96
2019-03-06T00:02:36.091Z,67.69
2019-03-06T00:03:36.109Z,67.77
2019-03-06T00:04:36.117Z,68.07
2019-03-06T00:05:36.116Z,68.02
2019-03-06T00:06:36.115Z,68.38
2019-03-06T00:07:36.115Z,68.81
2019-03-06T00:08:36.152Z,68.82
2019-03-06T00:09:36.136Z,68.71
2019-03-06T00:10:36.152Z,68.83
2019-03-06T00:11:36.141Z,68.76
2019-03-06T00:12:36.169Z,68.83
2019-03-06T00:13:36.167Z,69.02
2019-03-06T00:14:36.178Z,68.99
2019-03-06T00:15:36.202Z,69.08
2019-03-06T00:16:36.215Z,69.09
2019-03-06T00:17:36.201Z,69.47
2019-03-06T00:18:36.222Z,69.54
2019-03-06T00:19:36.239Z,69.59
2019-03-06T00:20:36.225Z,69.60
2019-03-06T00:21:36.242Z,69.75
2019-03-06T00:22:36.243Z,69.58
2019-03-06T00:23:36.248Z,69.64
2019-03-06T00:24:36.234Z,69.85
2019-03-06T00:25:36.255Z,70.06
2019-03-06T00:26:36.281Z,69.84
2019-03-06T00:27:36.323Z,69.67
2019-03-06T00:28:36.300Z,69.73
2019-03-06T00:29:36.300Z,70.22
2019-03-06T00:30:36.267Z,70.25
2019-03-06T00:31:36.291Z,70.37
2019-03-06T00:32:36.317Z,70.65
2019-03-06T00:33:36.325Z,70.64
2019-03-06T00:34:36.324Z,70.67
2019-03-06T00:35:36.330Z,70.65
2019-03-06T00:36:36.318Z,70.44
2019-03-06T00:37:36.357Z,70.37
2019-03-06T00:38:36.368Z,70.30
2019-03-06T00:39:36.403Z,70.26
2019-03-06T00:40:36.372Z,70.04
2019-03-06T00:41:36.379Z,70.01
2019-03-06T00:42:36.386Z,70.32
2019-03-06T00:43:36.591Z,70.28
2019-03-06T00:44:36.620Z,70.24
2019-03-06T00:45:36.817Z,70.54
2019-03-06T00:46:36.634Z,70.59
2019-03-06T00:47:36.619Z,71.04
2019-03-06T00:48:36.635Z,71.16
2019-03-06T00:49:36.663Z,71.13
2019-03-06T00:50:36.659Z,70.99
2019-03-06T00:51:36.669Z,71.11
2019-03-06T00:52:36.854Z,71.14
2019-03-06T00:53:36.665Z,71.19
2019-03-06T00:54:36.680Z,71.34
2019-03-06T00:55:36.682Z,71.50
2019-03-06T00:56:36.703Z,71.42
2019-03-06T00:57:36.703Z,71.34
2019-03-06T00:58:36.711Z,71.55
2019-03-06T00:59:36.701Z,71.31
2019-03-06T01:00:36.714Z,71.24
2019-03-06T01:01:36.724Z,71.26
2019-03-06T01:02:36.732Z,71.57
2019-03-06T01:03:36.739Z,71.79
2019-03-06T01:04:36.753Z,71.71
2019-03-06T01:05:36.743Z,71.99
2019-03-06T01:06:36.764Z,71.97
2019-03-06T01:07:36.782Z,72.15
2019-03-06T01:08:36.807Z,72.32
2019-03-06T01:09:36.807Z,72.44
2019-03-06T01:10:36.793Z,72.72
2019-03-06T01:11:36.825Z,72.54
2019-03-06T01:12:36.820Z,72.43
2019-03-06T01:13:36.806Z,72.60
2019-03-06T01:14:36.808Z,72.57
2019-03-06T01:15:36.825Z,72.58
2019-03-06T01:16:36.839Z,72.74
2019-03-06T01:17:36.819Z,72.54
2019-03-06T01:18:36.874Z,72.57
2019-03-06T01:19:36.862Z,72.41
2019-03-06T01:20:36.859Z,72.41
2019-03-06T01:21:36.890Z,72.32
2019-03-06T01:22:36.893Z,72.19
2019-03-06T01:23:36.888Z,72.27
2019-03-06T01:24:36.908Z,72.39
2019-03-06T01:25:36.914Z,72.30
2019-03-06T01:26:36.929Z,72.31
2019-03-06T01:27:36.935Z,72.14
2019-03-06T01:28:36.925Z,72.35
2019-03-06T01:29:36.916Z,72.34
2019-03-06T01:30:36.929Z,72.49
2019-03-06T01:31:36.936Z,72.68
2019-03-06T01:32:37.151Z,72.92
2019-03-06T01:33:37.196Z,72.99
2019-03-06T01:34:37.196Z,72.78
2019-03-06T01:35:37.177Z,72.76
2019-03-06T01:36:37.180Z,72.81
2019-03-06T01:37:37.193Z,72.86
2019-03-06T01:38:37.196Z,72.93
2019-03-06T01:39:37.241Z,72.71
2019-03-06T01:40:37.222Z,72.68
2019-03-06T01:41:37.221Z,72.65
2019-03-06T01:42:37.226Z,72.90
2019-03-06T01:43:37.222Z,72.82
2019-03-06T01:44:37.263Z,72.80
2019-03-06T01:45:37.487Z,72.93
2019-03-06T01:46:37.279Z,73.03
2019-03-06T01:47:37.256Z,73.12
2019-03-06T01:48:37.265Z,73.05
2019-03-06T01:49:37.280Z,73.16
2019-03-06T01:50:37.306Z,73.10
2019-03-06T01:51:37.344Z,73.09
2019-03-06T01:52:37.304Z,73.21
2019-03-06T01:53:37.300Z,73.21
2019-03-06T01:54:37.351Z,73.12
2019-03-06T01:55:37.328Z,73.38
2019-03-06T01:56:37.347Z,73.39
2019-03-06T01:57:37.328Z,73.52
2019-03-06T01:58:37.573Z,73.46
2019-03-06T01:59:37.339Z,73.75
2019-03-06T02:00:37.350Z,73.78
2019-03-06T02:01:37.367Z,73.61
2019-03-06T02:02:37.409Z,73.76
2019-03-06T02:03:38.920Z,73.91
2019-03-06T02:04:37.404Z,73.68
2019-03-06T02:05:37.389Z,73.73
2019-03-06T02:06:37.398Z,73.66
2019-03-06T02:07:37.423Z,73.58
2019-03-06T02:08:37.434Z,73.33
2019-03-06T02:09:37.438Z,73.37
2019-03-06T02:10:37.415Z,73.03
2019-03-06T02:11:37.479Z,73.03
2019-03-06T02:12:37.429Z,72.80
2019-03-06T02:13:37.441Z,72.42
2019-03-06T02:14:37.471Z,72.34
2019-03-06T02:15:37.488Z,72.62
2019-03-06T02:16:37.470Z,72.54
2019-03-06T02:17:37.488Z,72.62
2019-03-06T02:18:37.521Z,72.71
2019-03-06T02:19:37.498Z,72.78
2019-03-06T02:20:37.509Z,72.74
2019-03-06T02:21:37.550Z,72.42
2019-03-06T02:22:37.553Z,72.57
2019-03-06T02:23:37.527Z,72.45
2019-03-06T02:24:37.338Z,72.65
2019-03-06T02:25:37.350Z,72.63
2019-03-06T02:26:37.405Z,72.80
2019-03-06T02:27:37.374Z,72.66
2019-03-06T02:28:37.348Z,72.85
2019-03-06T02:29:37.377Z,72.97
2019-03-06T02:30:37.353Z,72.96
2019-03-06T02:31:37.399Z,73.25
2019-03-06T02:32:37.399Z,73.12
2019-03-06T02:33:37.417Z,73.35
2019-03-06T02:34:37.408Z,73.26
2019-03-06T02:35:37.410Z,73.21
2019-03-06T02:36:37.424Z,73.18
2019-03-06T02:37:37.438Z,73.28
2019-03-06T02:38:37.500Z,73.11
2019-03-06T02:39:37.485Z,73.32
2019-03-06T02:40:37.425Z,73.31
2019-03-06T02:41:37.442Z,73.23
2019-03-06T02:42:37.452Z,73.34
2019-03-06T02:43:37.476Z,73.24
2019-03-06T02:44:39.951Z,73.36
2019-03-06T02:45:37.500Z,73.35
2019-03-06T02:46:37.509Z,73.28
2019-03-06T02:47:37.498Z,73.23
2019-03-06T02:48:37.512Z,72.86
2019-03-06T02:49:37.517Z,72.92
2019-03-06T02:50:37.530Z,73.17
2019-03-06T02:51:37.563Z,72.82
2019-03-06T02:52:37.550Z,72.90
2019-03-06T02:53:37.548Z,72.92
2019-03-06T02:54:37.343Z,73.13
2019-03-06T02:55:37.369Z,72.87
2019-03-06T02:56:37.378Z,72.65
2019-03-06T02:57:37.386Z,72.55
2019-03-06T02:58:37.371Z,72.49
2019-03-06T02:59:37.375Z,72.48
2019-03-06T03:00:37.408Z,72.49
2019-03-06T03:01:37.403Z,72.42
2019-03-06T03:02:37.417Z,72.41
2019-03-06T03:03:37.442Z,72.39
2019-03-06T03:04:37.422Z,72.27
2019-03-06T03:05:37.424Z,72.25
2019-03-06T03:06:37.460Z,72.38
2019-03-06T03:07:37.455Z,72.37
2019-03-06T03:08:37.447Z,72.45
2019-03-06T03:09:37.454Z,72.37
2019-03-06T03:10:37.492Z,72.33
2019-03-06T03:11:37.468Z,72.38
2019-03-06T03:12:37.469Z,72.46
2019-03-06T03:13:37.487Z,72.39
2019-03-06T03:14:37.544Z,72.11
2019-03-06T03:15:37.533Z,72.28
2019-03-06T03:16:37.532Z,72.39
2019-03-06T03:17:37.506Z,72.37
2019-03-06T03:18:37.547Z,72.56
2019-03-06T03:19:37.541Z,72.42
2019-03-06T03:20:37.603Z,72.53
2019-03-06T03:21:37.574Z,72.45
2019-03-06T03:22:37.559Z,72.41
2019-03-06T03:23:37.556Z,72.62
2019-03-06T03:24:37.401Z,72.52
2019-03-06T03:25:37.365Z,72.36
2019-03-06T03:26:37.473Z,72.36
2019-03-06T03:27:37.416Z,72.41
2019-03-06T03:28:37.407Z,72.43
2019-03-06T03:29:37.395Z,72.29
2019-03-06T03:30:37.436Z,72.40
2019-03-06T03:31:37.409Z,72.44
2019-03-06T03:32:37.444Z,72.41
2019-03-06T03:33:37.448Z,72.15
2019-03-06T03:34:37.445Z,72.31
2019-03-06T03:35:37.430Z,72.31
2019-03-06T03:36:37.461Z,72.12
2019-03-06T03:37:37.479Z,72.27
2019-03-06T03:38:37.476Z,72.26
2019-03-06T03:39:37.476Z,72.05
2019-03-06T03:40:37.519Z,72.02
2019-03-06T03:41:37.494Z,72.21
2019-03-06T03:42:37.477Z,71.97
2019-03-06T03:43:37.535Z,71.90
2019-03-06T03:44:37.514Z,72.07
2019-03-06T03:45:37.542Z,71.85
2019-03-06T03:46:37.553Z,71.52
2019-03-06T03:47:37.524Z,71.57
2019-03-06T03:48:37.565Z,71.43
2019-03-06T03:49:37.540Z,71.38
2019-03-06T03:50:37.784Z,71.26
2019-03-06T03:51:37.554Z,71.13
2019-03-06T03:52:37.567Z,70.95
2019-03-06T03:53:37.790Z,70.78
2019-03-06T03:54:37.787Z,70.46
2019-03-06T03:55:37.862Z,70.24
2019-03-06T03:56:37.820Z,70.21
2019-03-06T03:57:37.810Z,70.17
2019-03-06T03:58:37.831Z,70.23
2019-03-06T03:59:37.815Z,70.40
2019-03-06T04:00:37.827Z,70.32
2019-03-06T04:01:37.852Z,70.58
2019-03-06T04:02:37.851Z,70.75
2019-03-06T04:03:37.871Z,71.01
2019-03-06T04:04:37.874Z,70.90
2019-03-06T04:05:37.890Z,70.91
2019-03-06T04:06:37.920Z,70.78
2019-03-06T04:07:37.935Z,70.89
2019-03-06T04:08:37.904Z,70.86
2019-03-06T04:09:37.901Z,70.95
2019-03-06T04:10:37.902Z,71.00
2019-03-06T04:11:37.914Z,71.02
2019-03-06T04:12:37.927Z,71.14
2019-03-06T04:13:38.027Z,71.35
2019-03-06T04:14:38.030Z,71.23
2019-03-06T04:15:37.939Z,71.36
2019-03-06T04:16:37.967Z,71.51
2019-03-06T04:17:37.960Z,71.53
2019-03-06T04:18:38.008Z,71.55
2019-03-06T04:19:37.980Z,71.33
2019-03-06T04:20:37.981Z,71.42
2019-03-06T04:21:37.985Z,71.40
2019-03-06T04:22:38.010Z,71.18
2019-03-06T04:23:38.016Z,71.33
2019-03-06T04:24:38.002Z,71.20
2019-03-06T04:25:38.060Z,71.08
2019-03-06T04:26:38.041Z,71.14
2019-03-06T04:27:38.020Z,71.17
2019-03-06T04:28:38.057Z,71.13
2019-03-06T04:29:38.040Z,71.25
2019-03-06T04:30:38.067Z,71.36
2019-03-06T04:31:38.088Z,71.44
2019-03-06T04:32:38.069Z,71.34
2019-03-06T04:33:38.094Z,71.34
2019-03-06T04:34:38.095Z,71.08
2019-03-06T04:35:38.287Z,71.24
2019-03-06T04:36:38.087Z,71.06
2019-03-06T04:37:38.130Z,70.84
2019-03-06T04:38:38.116Z,70.80
2019-03-06T04:39:38.145Z,71.02
2019-03-06T04:40:38.128Z,70.79
2019-03-06T04:41:38.322Z,70.64
2019-03-06T04:42:38.378Z,70.55
2019-03-06T04:43:38.371Z,70.55
2019-03-06T04:44:38.377Z,70.52
2019-03-06T04:45:38.375Z,70.68
2019-03-06T04:46:38.389Z,70.49
2019-03-06T04:47:38.387Z,70.51
2019-03-06T04:48:38.392Z,70.39
2019-03-06T04:49:38.434Z,70.53
2019-03-06T04:50:38.410Z,70.47
2019-03-06T04:51:38.414Z,70.59
2019-03-06T04:52:38.433Z,70.45
2019-03-06T04:53:38.427Z,70.44
2019-03-06T04:54:38.440Z,70.37
2019-03-06T04:55:38.444Z,70.46
2019-03-06T04:56:38.455Z,70.69
2019-03-06T04:57:38.447Z,70.58
2019-03-06T04:58:38.426Z,70.44
2019-03-06T04:59:38.475Z,70.33
2019-03-06T05:00:38.459Z,70.21
2019-03-06T05:01:38.514Z,70.46
2019-03-06T05:02:38.486Z,70.39
2019-03-06T05:03:38.477Z,70.63
2019-03-06T05:04:38.509Z,70.31
2019-03-06T05:05:38.489Z,70.35
2019-03-06T05:06:38.541Z,70.47
2019-03-06T05:07:38.587Z,70.59
2019-03-06T05:08:38.559Z,70.72
2019-03-06T05:09:38.773Z,70.66
2019-03-06T05:10:38.540Z,70.98
2019-03-06T05:11:38.549Z,71.09
2019-03-06T05:12:38.571Z,70.87
2019-03-06T05:13:38.595Z,71.14
2019-03-06T05:14:38.597Z,70.96
2019-03-06T05:15:38.588Z,71.00
2019-03-06T05:16:38.579Z,71.22
2019-03-06T05:17:38.604Z,71.22
2019-03-06T05:18:40.368Z,70.92
2019-03-06T05:19:38.647Z,70.90
2019-03-06T05:20:38.635Z,70.81
2019-03-06T05:21:38.624Z,70.71
2019-03-06T05:22:38.633Z,70.97
2019-03-06T05:23:38.658Z,71.06
2019-03-06T05:24:38.667Z,71.29
2019-03-06T05:25:38.664Z,71.25
2019-03-06T05:26:38.673Z,70.98
2019-03-06T05:27:38.665Z,71.17
2019-03-06T05:28:38.675Z,70.81
2019-03-06T05:29:38.672Z,70.89
2019-03-06T05:30:38.702Z,71.08
2019-03-06T05:31:38.722Z,71.10
2019-03-06T05:32:38.715Z,71.09
2019-03-06T05:33:38.705Z,71.01
2019-03-06T05:34:38.732Z,71.10
2019-03-06T05:35:38.719Z,71.08
2019-03-06T05:36:38.771Z,71.11
2019-03-06T05:37:38.763Z,70.91
2019-03-06T05:38:38.746Z,70.93
2019-03-06T05:39:38.769Z,71.09
2019-03-06T05:40:38.776Z,70.99
2019-03-06T05:41:38.772Z,71.10
2019-03-06T05:42:38.583Z,71.04
2019-03-06T05:43:38.614Z,71.01
2019-03-06T05:44:38.600Z,71.02
2019-03-06T05:45:38.587Z,71.07
2019-03-06T05:46:38.615Z,71.18
2019-03-06T05:47:38.649Z,71.30
2019-03-06T05:48:38.608Z,71.18
2019-03-06T05:49:38.636Z,71.27
2019-03-06T05:50:38.641Z,71.18
2019-03-06T05:51:38.650Z,71.14
2019-03-06T05:52:38.657Z,71.16
2019-03-06T05:53:38.645Z,71.28
2019-03-06T05:54:38.676Z,71.29
2019-03-06T05:55:38.719Z,71.48
2019-03-06T05:56:38.727Z,71.45
2019-03-06T05:57:38.694Z,71.50
2019-03-06T05:58:38.724Z,71.42
2019-03-06T05:59:38.700Z,71.39
2019-03-06T06:00:38.712Z,71.58
2019-03-06T06:01:38.733Z,71.46
2019-03-06T06:02:38.723Z,71.17
2019-03-06T06:03:38.729Z,71.10
2019-03-06T06:04:38.742Z,71.26
2019-03-06T06:05:38.750Z,70.90
2019-03-06T06:06:38.792Z,70.98
2019-03-06T06:07:38.780Z,71.05
2019-03-06T06:08:38.770Z,71.35
2019-03-06T06:09:38.785Z,71.29
2019-03-06T06:10:38.804Z,71.23
2019-03-06T06:11:38.787Z,71.19
2019-03-06T06:12:38.610Z,71.17
2019-03-06T06:13:38.645Z,71.01
2019-03-06T06:14:39.226Z,71.27
2019-03-06T06:15:38.620Z,70.82
2019-03-06T06:16:38.659Z,71.05
2019-03-06T06:17:38.625Z,70.93
2019-03-06T06:18:38.645Z,70.95
2019-03-06T06:19:38.662Z,71.03
2019-03-06T06:20:38.665Z,71.29
2019-03-06T06:21:38.646Z,71.15
2019-03-06T06:22:38.655Z,71.02
2019-03-06T06:23:38.678Z,71.13
2019-03-06T06:24:38.715Z,71.18
2019-03-06T06:25:38.706Z,71.10
2019-03-06T06:26:38.683Z,70.95
2019-03-06T06:27:38.718Z,70.95
2019-03-06T06:28:38.766Z,70.94
2019-03-06T06:29:38.711Z,70.79
2019-03-06T06:30:38.733Z,70.75
2019-03-06T06:31:38.737Z,70.54
2019-03-06T06:32:38.744Z,70.55
2019-03-06T06:33:38.743Z,70.29
2019-03-06T06:34:38.787Z,69.97
2019-03-06T06:35:38.779Z,69.85
2019-03-06T06:36:38.792Z,69.58
2019-03-06T06:37:38.777Z,69.16
2019-03-06T06:38:38.784Z,68.78
2019-03-06T06:39:38.793Z,68.40
2019-03-06T06:40:38.812Z,68.27
2019-03-06T06:41:39.040Z,68.26
2019-03-06T06:42:38.624Z,68.00
2019-03-06T06:43:38.600Z,67.90
2019-03-06T06:44:38.643Z,67.83
2019-03-06T06:45:38.639Z,67.83
2019-03-06T06:46:38.651Z,67.50
2019-03-06T06:47:38.660Z,67.35
2019-03-06T06:48:38.701Z,67.24
2019-03-06T06:49:38.672Z,66.53
2019-03-06T06:50:38.695Z,66.00
2019-03-06T06:51:38.686Z,65.84
2019-03-06T06:52:38.687Z,65.40
2019-03-06T06:53:38.701Z,65.75
2019-03-06T06:54:38.703Z,65.41
2019-03-06T06:55:38.717Z,65.35
2019-03-06T06:56:38.701Z,65.06
2019-03-06T06:57:38.706Z,64.75
2019-03-06T06:58:38.710Z,64.59
2019-03-06T06:59:38.748Z,64.20
2019-03-06T07:00:38.758Z,63.34
2019-03-06T07:01:38.744Z,63.04
2019-03-06T07:02:39.575Z,62.79
2019-03-06T07:03:38.790Z,62.80
2019-03-06T07:04:38.814Z,61.97
2019-03-06T07:05:38.817Z,60.96
2019-03-06T07:06:38.780Z,57.79
2019-03-06T07:07:38.793Z,56.70
2019-03-06T07:08:38.790Z,56.54
2019-03-06T07:09:38.801Z,56.20
2019-03-06T07:10:38.840Z,55.83
2019-03-06T07:11:39.057Z,55.61
2019-03-06T07:12:38.804Z,54.87
2019-03-06T07:13:38.660Z,54.29
2019-03-06T07:14:38.646Z,53.90
2019-03-06T07:15:38.662Z,52.64
2019-03-06T07:16:38.673Z,52.08
2019-03-06T07:17:38.681Z,52.48
2019-03-06T07:18:38.679Z,51.96
2019-03-06T07:19:38.717Z,50.83
2019-03-06T07:20:38.883Z,50.27
2019-03-06T07:21:38.892Z,50.02
2019-03-06T07:22:38.932Z,50.65
2019-03-06T07:23:38.915Z,50.54
2019-03-06T07:24:38.901Z,49.89
2019-03-06T07:25:38.945Z,49.36
2019-03-06T07:26:38.928Z,50.67
2019-03-06T07:27:38.953Z,50.33
2019-03-06T07:28:38.952Z,54.52
2019-03-06T07:29:38.945Z,52.69
2019-03-06T07:30:38.964Z,50.58
2019-03-06T07:31:38.993Z,49.10
2019-03-06T07:32:38.974Z,47.67
2019-03-06T07:33:38.991Z,46.29
2019-03-06T07:34:39.008Z,46.47
2019-03-06T07:35:38.989Z,46.88
2019-03-06T07:36:39.001Z,45.76
2019-03-06T07:37:39.014Z,44.71
2019-03-06T07:38:39.021Z,45.01
2019-03-06T07:39:39.052Z,44.20
2019-03-06T07:40:39.060Z,43.62
2019-03-06T07:41:39.033Z,43.74
2019-03-06T07:42:39.040Z,43.77
2019-03-06T07:43:39.075Z,46.65
2019-03-06T07:44:39.089Z,46.04
2019-03-06T07:45:39.074Z,45.89
2019-03-06T07:46:39.105Z,45.33
2019-03-06T07:47:39.083Z,43.99
2019-03-06T07:48:39.112Z,43.17
2019-03-06T07:49:44.967Z,43.08
2019-03-06T07:50:39.100Z,43.21
2019-03-06T07:51:39.130Z,45.34
2019-03-06T07:52:39.139Z,50.18
2019-03-06T07:53:39.128Z,52.13
2019-03-06T07:54:39.134Z,51.15
2019-03-06T07:55:39.148Z,50.95
2019-03-06T07:56:39.151Z,49.90
2019-03-06T07:57:39.190Z,49.56
2019-03-06T07:58:39.197Z,49.57
2019-03-06T07:59:39.187Z,48.52
2019-03-06T08:00:39.183Z,48.51
2019-03-06T08:01:39.202Z,47.65
2019-03-06T08:02:39.205Z,46.56
2019-03-06T08:03:39.227Z,48.45
2019-03-06T08:04:39.240Z,47.75
2019-03-06T08:05:39.223Z,47.91
2019-03-06T08:06:39.228Z,48.70
2019-03-06T08:07:39.265Z,47.99
2019-03-06T08:08:39.224Z,47.41
2019-03-06T08:09:39.056Z,47.81
2019-03-06T08:10:39.069Z,47.64
2019-03-06T08:11:39.070Z,46.23
2019-03-06T08:12:39.064Z,46.16
2019-03-06T08:13:39.060Z,44.76
2019-03-06T08:14:39.073Z,41.69
2019-03-06T08:15:39.116Z,40.90
2019-03-06T08:16:39.136Z,42.13
2019-03-06T08:17:39.118Z,42.23
2019-03-06T08:18:39.134Z,42.46
2019-03-06T08:19:39.114Z,42.52
2019-03-06T08:20:39.119Z,41.95
2019-03-06T08:21:39.144Z,42.64
2019-03-06T08:22:39.147Z,42.00
2019-03-06T08:23:39.147Z,42.36
2019-03-06T08:24:39.166Z,42.90
2019-03-06T08:25:39.166Z,43.83
2019-03-06T08:26:39.164Z,42.48
2019-03-06T08:27:39.196Z,42.42
2019-03-06T08:28:39.188Z,43.34
2019-03-06T08:29:39.180Z,42.77
2019-03-06T08:30:39.181Z,42.40
2019-03-06T08:31:39.225Z,42.66
2019-03-06T08:32:39.214Z,42.78
2019-03-06T08:33:39.249Z,42.88
2019-03-06T08:34:39.242Z,43.38
2019-03-06T08:35:39.252Z,43.53
2019-03-06T08:36:39.228Z,43.38
2019-03-06T08:37:39.224Z,42.52
2019-03-06T08:38:39.242Z,41.09
2019-03-06T08:39:39.090Z,41.07
2019-03-06T08:40:39.090Z,41.09
2019-03-06T08:41:39.061Z,40.09
2019-03-06T08:42:39.094Z,40.27
2019-03-06T08:43:39.100Z,39.82
2019-03-06T08:44:39.080Z,39.14
2019-03-06T08:45:39.115Z,39.44
2019-03-06T08:46:39.113Z,38.66
2019-03-06T08:47:39.098Z,38.48
2019-03-06T08:48:39.113Z,38.54
2019-03-06T08:49:39.153Z,39.21
2019-03-06T08:50:39.125Z,38.32
2019-03-06T08:51:39.160Z,38.26
2019-03-06T08:52:39.167Z,37.14
2019-03-06T08:53:39.148Z,37.47
2019-03-06T08:54:39.148Z,40.00
2019-03-06T08:55:39.186Z,39.87
2019-03-06T08:56:39.173Z,39.88
2019-03-06T08:57:39.198Z,40.44
2019-03-06T08:58:39.194Z,39.65
2019-03-06T08:59:39.208Z,39.61
2019-03-06T09:00:39.235Z,40.24
2019-03-06T09:01:39.223Z,40.67
2019-03-06T09:02:39.210Z,39.52
2019-03-06T09:03:39.248Z,40.58
2019-03-06T09:04:39.278Z,39.57
2019-03-06T09:05:39.248Z,39.12
2019-03-06T09:06:39.248Z,38.30
2019-03-06T09:07:39.285Z,37.99
2019-03-06T09:08:39.258Z,39.41
2019-03-06T09:09:39.309Z,39.42
2019-03-06T09:10:39.088Z,38.45
2019-03-06T09:11:39.588Z,37.17
2019-03-06T09:12:39.076Z,36.37
2019-03-06T09:13:39.118Z,36.02
2019-03-06T09:14:39.093Z,35.30
2019-03-06T09:15:39.145Z,35.76
2019-03-06T09:16:39.187Z,35.86
2019-03-06T09:17:39.104Z,35.60
2019-03-06T09:18:39.130Z,34.02
2019-03-06T09:19:39.151Z,34.70
2019-03-06T09:20:41.029Z,34.26
2019-03-06T09:21:39.182Z,35.63
2019-03-06T09:22:39.204Z,37.75
2019-03-06T09:23:39.163Z,37.53
2019-03-06T09:24:39.163Z,36.11
2019-03-06T09:25:39.199Z,36.00
2019-03-06T09:26:39.181Z,36.05
2019-03-06T09:27:39.242Z,34.92
2019-03-06T09:28:39.228Z,34.79
2019-03-06T09:29:39.218Z,35.75
2019-03-06T09:30:39.279Z,35.93
2019-03-06T09:31:39.299Z,35.65
2019-03-06T09:32:39.289Z,35.91
2019-03-06T09:33:39.285Z,34.99
2019-03-06T09:34:39.318Z,34.41
2019-03-06T09:35:39.282Z,33.28
2019-03-06T09:36:39.299Z,35.50
2019-03-06T09:37:39.283Z,33.81
2019-03-06T09:38:39.294Z,35.67
2019-03-06T09:39:39.305Z,35.86
2019-03-06T09:40:39.318Z,36.68
2019-03-06T09:41:39.303Z,36.71
2019-03-06T09:42:39.127Z,35.59
2019-03-06T09:43:39.119Z,35.75
2019-03-06T09:44:39.117Z,35.79
2019-03-06T09:45:39.170Z,35.58
2019-03-06T09:46:39.158Z,35.90
2019-03-06T09:47:39.136Z,35.01
2019-03-06T09:48:39.161Z,34.46
2019-03-06T09:49:39.166Z,35.45
2019-03-06T09:50:39.159Z,35.34
2019-03-06T09:51:39.198Z,34.16
2019-03-06T09:52:39.216Z,33.19
2019-03-06T09:53:39.176Z,33.55
2019-03-06T09:54:39.197Z,34.23
2019-03-06T09:55:39.220Z,33.73
2019-03-06T09:56:39.206Z,34.04
2019-03-06T09:57:39.243Z,35.76
2019-03-06T09:58:39.251Z,35.95
2019-03-06T09:59:39.241Z,34.95
2019-03-06T10:00:39.212Z,34.34
2019-03-06T10:01:39.235Z,33.06
2019-03-06T10:02:39.248Z,34.10
2019-03-06T10:03:39.299Z,33.60
2019-03-06T10:04:39.301Z,33.26
2019-03-06T10:05:39.282Z,33.06
2019-03-06T10:06:39.301Z,32.28
2019-03-06T10:07:39.285Z,32.38
2019-03-06T10:08:39.307Z,32.30
2019-03-06T10:09:39.290Z,34.66
2019-03-06T10:10:45.982Z,35.08
2019-03-06T10:11:39.334Z,33.67
2019-03-06T10:12:47.202Z,33.20
2019-03-06T10:13:42.102Z,33.97
2019-03-06T10:14:39.159Z,35.60
2019-03-06T10:15:39.154Z,37.13
2019-03-06T10:16:39.167Z,36.44
2019-03-06T10:17:39.168Z,35.07
2019-03-06T10:18:39.167Z,34.30
2019-03-06T10:19:39.188Z,35.66
2019-03-06T10:20:39.181Z,35.58
2019-03-06T10:21:39.179Z,35.22
2019-03-06T10:22:39.226Z,35.65
2019-03-06T10:23:39.196Z,34.62
2019-03-06T10:24:39.226Z,33.40
2019-03-06T10:25:39.227Z,33.23
2019-03-06T10:26:39.230Z,34.08
2019-03-06T10:27:39.265Z,37.21
2019-03-06T10:28:39.265Z,36.62
2019-03-06T10:29:39.262Z,38.18
2019-03-06T10:30:39.225Z,35.49
2019-03-06T10:31:39.259Z,35.20
2019-03-06T10:32:39.262Z,35.70
2019-03-06T10:33:39.311Z,36.22
2019-03-06T10:34:39.292Z,35.56
2019-03-06T10:35:39.283Z,35.98
2019-03-06T10:36:39.293Z,36.93
2019-03-06T10:37:39.318Z,35.63
2019-03-06T10:38:39.318Z,34.59
2019-03-06T10:39:39.349Z,35.34
2019-03-06T10:40:39.374Z,34.91
2019-03-06T10:41:39.330Z,35.96
2019-03-06T10:42:39.349Z,34.73
2019-03-06T10:43:39.348Z,33.49
2019-03-06T10:44:39.347Z,34.96
2019-03-06T10:45:42.019Z,33.36
2019-03-06T10:46:39.215Z,33.09
2019-03-06T10:47:39.164Z,32.18
2019-03-06T10:48:39.197Z,31.38
2019-03-06T10:49:39.212Z,30.58
2019-03-06T10:50:39.201Z,30.44
2019-03-06T10:51:39.204Z,30.62
2019-03-06T10:52:39.227Z,31.01
2019-03-06T10:53:41.544Z,30.29
2019-03-06T10:54:44.611Z,32.39
2019-03-06T10:55:39.250Z,35.08
2019-03-06T10:56:39.247Z,35.86
2019-03-06T10:57:39.271Z,35.34
2019-03-06T10:58:39.238Z,34.20
2019-03-06T10:59:39.239Z,33.36
2019-03-06T11:00:39.286Z,31.70
2019-03-06T11:01:39.283Z,32.70
2019-03-06T11:02:39.290Z,33.12
2019-03-06T11:03:39.343Z,32.74
2019-03-06T11:04:39.325Z,31.67
2019-03-06T11:05:39.401Z,31.57
2019-03-06T11:06:39.318Z,31.16
2019-03-06T11:07:39.322Z,30.90
2019-03-06T11:08:39.380Z,30.41
2019-03-06T11:09:39.430Z,29.17
2019-03-06T11:10:39.368Z,29.62
2019-03-06T11:11:39.346Z,30.26
2019-03-06T11:12:39.381Z,30.41
2019-03-06T11:13:39.370Z,32.51
2019-03-06T11:14:39.373Z,32.56
2019-03-06T11:15:39.394Z,34.60
2019-03-06T11:16:39.198Z,34.09
2019-03-06T11:17:39.190Z,33.13
2019-03-06T11:18:39.176Z,33.46
2019-03-06T11:19:39.390Z,32.92
2019-03-06T11:20:40.670Z,33.66
2019-03-06T11:21:39.225Z,34.07
2019-03-06T11:22:39.230Z,36.19
2019-03-06T11:23:39.216Z,36.09
2019-03-06T11:24:39.248Z,36.27
2019-03-06T11:25:39.243Z,35.42
2019-03-06T11:26:39.242Z,34.45
2019-03-06T11:27:39.283Z,35.43
2019-03-06T11:28:39.278Z,35.81
2019-03-06T11:29:39.259Z,35.03
2019-03-06T11:30:39.270Z,34.26
2019-03-06T11:31:39.317Z,33.98
2019-03-06T11:32:39.314Z,34.21
2019-03-06T11:33:39.319Z,34.61
2019-03-06T11:34:39.346Z,35.77
2019-03-06T11:35:39.355Z,36.02
2019-03-06T11:36:39.328Z,35.91
2019-03-06T11:37:39.345Z,35.70
2019-03-06T11:38:39.343Z,35.25
2019-03-06T11:39:39.381Z,34.35
2019-03-06T11:40:39.353Z,34.84
2019-03-06T11:41:39.349Z,34.73
2019-03-06T11:42:39.387Z,36.43
2019-03-06T11:43:39.354Z,35.89
2019-03-06T11:44:39.371Z,35.83
2019-03-06T11:45:39.400Z,36.02
2019-03-06T11:46:39.414Z,35.33
2019-03-06T11:47:39.418Z,34.98
2019-03-06T11:48:39.203Z,35.20
2019-03-06T11:49:39.206Z,34.99
2019-03-06T11:50:41.163Z,35.42
2019-03-06T11:51:39.258Z,36.59
2019-03-06T11:52:39.246Z,36.07
2019-03-06T11:53:39.251Z,34.96
2019-03-06T11:54:39.244Z,34.49
2019-03-06T11:55:39.259Z,35.15
2019-03-06T11:56:39.256Z,36.02
2019-03-06T11:57:39.279Z,35.42
2019-03-06T11:58:39.280Z,36.58
2019-03-06T11:59:39.304Z,35.82
2019-03-06T12:00:39.318Z,35.04
2019-03-06T12:01:47.607Z,33.00
2019-03-06T12:02:39.332Z,33.39
2019-03-06T12:03:39.319Z,33.04
2019-03-06T12:04:39.324Z,31.21
2019-03-06T12:05:39.323Z,32.69
2019-03-06T12:06:39.333Z,34.44
2019-03-06T12:07:39.356Z,34.86
2019-03-06T12:08:45.654Z,34.05
2019-03-06T12:09:39.382Z,34.97
2019-03-06T12:10:39.405Z,33.90
2019-03-06T12:11:39.384Z,33.71
2019-03-06T12:12:39.389Z,33.45
2019-03-06T12:13:39.396Z,34.04
2019-03-06T12:14:39.382Z,33.36
2019-03-06T12:15:39.404Z,33.46
2019-03-06T12:16:42.054Z,34.79
2019-03-06T12:17:39.425Z,33.75
2019-03-06T12:18:39.450Z,34.30
2019-03-06T12:19:39.452Z,34.15
2019-03-06T12:20:39.433Z,33.49
2019-03-06T12:21:39.251Z,33.89
2019-03-06T12:22:39.291Z,34.33
2019-03-06T12:23:39.355Z,34.06
2019-03-06T12:24:39.258Z,32.58
2019-03-06T12:25:39.273Z,32.78
2019-03-06T12:26:39.267Z,33.18
2019-03-06T12:27:39.352Z,33.88
2019-03-06T12:28:39.318Z,34.44
2019-03-06T12:29:39.285Z,34.79
2019-03-06T12:30:39.326Z,33.21
2019-03-06T12:31:39.307Z,32.60
2019-03-06T12:32:39.312Z,32.89
2019-03-06T12:33:39.350Z,31.93
2019-03-06T12:34:39.349Z,31.66
2019-03-06T12:35:39.345Z,32.28
2019-03-06T12:36:39.338Z,32.43
2019-03-06T12:37:46.681Z,31.94
2019-03-06T12:38:40.249Z,32.10
2019-03-06T12:39:39.400Z,32.97
2019-03-06T12:40:39.411Z,33.77
2019-03-06T12:41:39.384Z,32.38
2019-03-06T12:42:39.395Z,32.73
2019-03-06T12:43:39.423Z,31.50
2019-03-06T12:44:39.421Z,30.98
2019-03-06T12:45:39.448Z,32.80
2019-03-06T12:46:39.473Z,31.68
2019-03-06T12:47:39.427Z,32.03
2019-03-06T12:48:39.433Z,31.71
2019-03-06T12:49:39.458Z,32.75
2019-03-06T12:50:39.465Z,35.03
2019-03-06T12:51:39.499Z,35.58
2019-03-06T12:52:39.276Z,34.41